Mitilini, Greece
Current Conditions -  °F | °C
As of 4:50 PM on Tuesday 21 Oct 2014 (Local Time) from LGMT Reporting Station
Clear Clear  
Wind Chill: 75°   Ceiling: Unl
Heat Index: 75°   Visibility: 6mi
Dew Point: 50°   Wind: 5mph
Humidity: 41%   Direction: 330°NNW
Pressure: 29.91"   Gusts: NA
Location:  39.11°N, 26.55°E
Report Text: LGMT 211350Z 33004KT CAVOK 24/10 Q1013
Loading
Personal Weather Stations






























Interactive Weather Map New forecast layout! Learn more

10-Day Weather Forecast

Advertisements
Track Severe Weather on mobile